Terminal Aerodrome Forecast
Issued by NWS Cleveland, OH

Home | Current Version | Previous Version | Graphics & Text | Print | Product List | Glossary On
Versions: 1 2 3 4 5 6 7 8 9 10 11 12 13 14 15 16 17 18 19 20 21
000
FTUS41 KCLE 271500 AAA
TAFYNG
TAF AMD
KYNG 271520Z 2715/2812 20010KT P6SM VCSH BKN035 OVC050
      TEMPO 2715/2718 6SM -SHRA BKN025
     FM271800 20012KT P6SM -SHRA SCT025 OVC035
     FM280300 23008KT 4SM -RA BR SCT015 OVC025
     FM280500 24008KT 3SM -RA BR OVC006
     FM280900 30008KT 4SM -RA BR OVC006=

USA.gov is the U.S. government's official web portal to all federal, state and local government web resources and services.